sensor_id;sensor_type;location;lat;lon;timestamp;temperature;humidity
37896;DHT22;23733;53.254;10.430;2022-10-18T00:00:58;16.30;99.90
37896;DHT22;23733;53.254;10.430;2022-10-18T00:03:24;16.30;99.90
37896;DHT22;23733;53.254;10.430;2022-10-18T00:05:50;16.30;99.90
37896;DHT22;23733;53.254;10.430;2022-10-18T00:08:17;16.30;99.90
37896;DHT22;23733;53.254;10.430;2022-10-18T00:10:44;16.30;99.90
37896;DHT22;23733;53.254;10.430;2022-10-18T00:13:10;16.30;99.90
37896;DHT22;23733;53.254;10.430;2022-10-18T00:15:36;16.20;99.90
37896;DHT22;23733;53.254;10.430;2022-10-18T00:18:03;16.20;99.90
37896;DHT22;23733;53.254;10.430;2022-10-18T00:20:29;16.20;99.90
37896;DHT22;23733;53.254;10.430;2022-10-18T00:22:56;16.20;99.90
37896;DHT22;23733;53.254;10.430;2022-10-18T00:25:22;16.20;99.90
37896;DHT22;23733;53.254;10.430;2022-10-18T00:27:48;16.20;99.90
37896;DHT22;23733;53.254;10.430;2022-10-18T00:30:14;16.20;99.90
37896;DHT22;23733;53.254;10.430;2022-10-18T00:32:41;16.20;99.90
37896;DHT22;23733;53.254;10.430;2022-10-18T00:35:07;16.20;99.90
37896;DHT22;23733;53.254;10.430;2022-10-18T00:37:34;16.20;99.90
37896;DHT22;23733;53.254;10.430;2022-10-18T00:40:00;16.20;99.90
37896;DHT22;23733;53.254;10.430;2022-10-18T00:42:30;16.20;99.90
37896;DHT22;23733;53.254;10.430;2022-10-18T00:45:21;16.10;99.90
37896;DHT22;23733;53.254;10.430;2022-10-18T00:47:51;16.20;99.90
37896;DHT22;23733;53.254;10.430;2022-10-18T00:50:18;16.20;99.90
37896;DHT22;23733;53.254;10.430;2022-10-18T00:52:49;16.20;99.90
37896;DHT22;23733;53.254;10.430;2022-10-18T00:55:17;16.10;99.90
37896;DHT22;23733;53.254;10.430;2022-10-18T00:57:43;16.10;99.90
37896;DHT22;23733;53.254;10.430;2022-10-18T01:00:10;16.10;99.90
37896;DHT22;23733;53.254;10.430;2022-10-18T01:02:39;16.10;99.90
37896;DHT22;23733;53.254;10.430;2022-10-18T01:05:06;16.10;99.90
37896;DHT22;23733;53.254;10.430;2022-10-18T01:10:31;16.00;99.90
37896;DHT22;23733;53.254;10.430;2022-10-18T01:16:00;16.00;99.90
37896;DHT22;23733;53.254;10.430;2022-10-18T01:21:49;15.90;99.90
37896;DHT22;23733;53.254;10.430;2022-10-18T01:24:49;15.90;99.90
37896;DHT22;23733;53.254;10.430;2022-10-18T01:27:34;15.90;99.90
37896;DHT22;23733;53.254;10.430;2022-10-18T01:30:28;15.90;99.90
37896;DHT22;23733;53.254;10.430;2022-10-18T01:33:11;15.80;99.90
37896;DHT22;23733;53.254;10.430;2022-10-18T01:35:43;15.80;99.90
37896;DHT22;23733;53.254;10.430;2022-10-18T01:38:14;15.80;99.90
37896;DHT22;23733;53.254;10.430;2022-10-18T01:40:44;15.80;99.90
37896;DHT22;23733;53.254;10.430;2022-10-18T01:43:13;15.80;99.90
37896;DHT22;23733;53.254;10.430;2022-10-18T01:45:41;15.80;99.90
37896;DHT22;23733;53.254;10.430;2022-10-18T01:48:09;15.80;99.90
37896;DHT22;23733;53.254;10.430;2022-10-18T02:06:07;15.70;99.90
37896;DHT22;23733;53.254;10.430;2022-10-18T02:11:09;15.60;99.90
37896;DHT22;23733;53.254;10.430;2022-10-18T02:13:54;15.60;99.90
37896;DHT22;23733;53.254;10.430;2022-10-18T02:16:37;15.60;99.90
37896;DHT22;23733;53.254;10.430;2022-10-18T02:19:24;15.60;99.90
37896;DHT22;23733;53.254;10.430;2022-10-18T02:21:54;15.60;99.90
37896;DHT22;23733;53.254;10.430;2022-10-18T02:24:23;15.60;99.90
37896;DHT22;23733;53.254;10.430;2022-10-18T02:26:50;15.60;99.90
37896;DHT22;23733;53.254;10.430;2022-10-18T02:29:17;15.60;99.90
37896;DHT22;23733;53.254;10.430;2022-10-18T02:31:45;15.60;99.90
37896;DHT22;23733;53.254;10.430;2022-10-18T02:53:59;15.60;99.90
37896;DHT22;23733;53.254;10.430;2022-10-18T02:56:25;15.50;99.90
37896;DHT22;23733;53.254;10.430;2022-10-18T02:58:51;15.50;99.90
37896;DHT22;23733;53.254;10.430;2022-10-18T03:01:17;15.40;99.90
37896;DHT22;23733;53.254;10.430;2022-10-18T03:03:43;15.40;99.90
37896;DHT22;23733;53.254;10.430;2022-10-18T03:06:09;15.40;99.90
37896;DHT22;23733;53.254;10.430;2022-10-18T03:08:35;15.40;99.90
37896;DHT22;23733;53.254;10.430;2022-10-18T03:11:01;15.40;99.90
37896;DHT22;23733;53.254;10.430;2022-10-18T03:13:27;15.40;99.90
37896;DHT22;23733;53.254;10.430;2022-10-18T03:15:53;15.40;99.90
37896;DHT22;23733;53.254;10.430;2022-10-18T03:18:19;15.30;99.90
37896;DHT22;23733;53.254;10.430;2022-10-18T03:20:45;15.30;99.90
37896;DHT22;23733;53.254;10.430;2022-10-18T03:23:11;15.30;99.90
37896;DHT22;23733;53.254;10.430;2022-10-18T03:25:37;15.30;99.90
37896;DHT22;23733;53.254;10.430;2022-10-18T03:28:03;15.20;99.90
37896;DHT22;23733;53.254;10.430;2022-10-18T03:30:29;15.30;99.90
37896;DHT22;23733;53.254;10.430;2022-10-18T03:32:55;15.30;99.90
37896;DHT22;23733;53.254;10.430;2022-10-18T03:35:21;15.30;99.90
37896;DHT22;23733;53.254;10.430;2022-10-18T03:37:47;15.30;99.90
37896;DHT22;23733;53.254;10.430;2022-10-18T03:40:14;15.20;99.90
37896;DHT22;23733;53.254;10.430;2022-10-18T03:42:39;15.20;99.90
37896;DHT22;23733;53.254;10.430;2022-10-18T03:45:06;15.10;99.90
37896;DHT22;23733;53.254;10.430;2022-10-18T03:47:32;15.10;99.90
37896;DHT22;23733;53.254;10.430;2022-10-18T03:49:58;15.10;99.90
37896;DHT22;23733;53.254;10.430;2022-10-18T03:52:24;15.00;99.90
37896;DHT22;23733;53.254;10.430;2022-10-18T03:54:50;15.00;99.90
37896;DHT22;23733;53.254;10.430;2022-10-18T03:57:16;15.00;99.90
37896;DHT22;23733;53.254;10.430;2022-10-18T03:59:42;15.00;99.90
37896;DHT22;23733;53.254;10.430;2022-10-18T04:02:08;15.00;99.90
37896;DHT22;23733;53.254;10.430;2022-10-18T04:04:34;15.00;99.90
37896;DHT22;23733;53.254;10.430;2022-10-18T04:07:00;15.00;99.90
37896;DHT22;23733;53.254;10.430;2022-10-18T04:09:26;15.00;99.90
37896;DHT22;23733;53.254;10.430;2022-10-18T04:11:52;15.00;99.90
37896;DHT22;23733;53.254;10.430;2022-10-18T04:14:18;15.00;99.90
37896;DHT22;23733;53.254;10.430;2022-10-18T04:16:46;14.90;99.90
37896;DHT22;23733;53.254;10.430;2022-10-18T04:19:12;14.90;99.90
37896;DHT22;23733;53.254;10.430;2022-10-18T04:36:16;14.90;99.90
37896;DHT22;23733;53.254;10.430;2022-10-18T04:38:42;14.70;99.90
37896;DHT22;23733;53.254;10.430;2022-10-18T04:41:08;14.60;99.90
37896;DHT22;23733;53.254;10.430;2022-10-18T04:43:34;14.60;99.90
37896;DHT22;23733;53.254;10.430;2022-10-18T05:34:55;14.60;99.90
37896;DHT22;23733;53.254;10.430;2022-10-18T05:37:21;14.50;99.90
37896;DHT22;23733;53.254;10.430;2022-10-18T05:39:47;14.50;99.90
37896;DHT22;23733;53.254;10.430;2022-10-18T05:42:13;14.50;99.90
37896;DHT22;23733;53.254;10.430;2022-10-18T05:44:40;14.50;99.90
37896;DHT22;23733;53.254;10.430;2022-10-18T05:47:06;14.50;99.90
37896;DHT22;23733;53.254;10.430;2022-10-18T05:49:32;14.50;99.90
37896;DHT22;23733;53.254;10.430;2022-10-18T05:51:58;14.40;99.90
37896;DHT22;23733;53.254;10.430;2022-10-18T05:54:24;14.50;99.90
37896;DHT22;23733;53.254;10.430;2022-10-18T05:56:50;14.50;99.90
37896;DHT22;23733;53.254;10.430;2022-10-18T05:59:15;14.50;99.90
37896;DHT22;23733;53.254;10.430;2022-10-18T06:01:42;14.40;99.90
37896;DHT22;23733;53.254;10.430;2022-10-18T06:04:08;14.50;99.90
37896;DHT22;23733;53.254;10.430;2022-10-18T06:06:35;14.50;99.90
37896;DHT22;23733;53.254;10.430;2022-10-18T06:09:03;14.40;99.90
37896;DHT22;23733;53.254;10.430;2022-10-18T06:11:29;14.40;99.90
37896;DHT22;23733;53.254;10.430;2022-10-18T06:13:56;14.40;99.90
37896;DHT22;23733;53.254;10.430;2022-10-18T06:16:25;14.40;99.90
37896;DHT22;23733;53.254;10.430;2022-10-18T06:18:55;14.40;99.90
37896;DHT22;23733;53.254;10.430;2022-10-18T06:21:23;14.40;99.90
37896;DHT22;23733;53.254;10.430;2022-10-18T06:23:54;14.40;99.90
37896;DHT22;23733;53.254;10.430;2022-10-18T06:26:21;14.40;99.90
37896;DHT22;23733;53.254;10.430;2022-10-18T06:28:47;14.40;99.90
37896;DHT22;23733;53.254;10.430;2022-10-18T06:31:14;14.40;99.90
37896;DHT22;23733;53.254;10.430;2022-10-18T06:33:40;14.40;99.90
37896;DHT22;23733;53.254;10.430;2022-10-18T06:38:33;14.40;99.90
37896;DHT22;23733;53.254;10.430;2022-10-18T06:41:00;14.40;99.90
37896;DHT22;23733;53.254;10.430;2022-10-18T06:43:27;14.40;99.90
37896;DHT22;23733;53.254;10.430;2022-10-18T06:45:53;14.30;99.90
37896;DHT22;23733;53.254;10.430;2022-10-18T06:48:20;14.30;99.90
37896;DHT22;23733;53.254;10.430;2022-10-18T06:50:56;14.30;99.90
37896;DHT22;23733;53.254;10.430;2022-10-18T06:53:24;14.30;99.90
37896;DHT22;23733;53.254;10.430;2022-10-18T06:55:51;14.30;99.90
37896;DHT22;23733;53.254;10.430;2022-10-18T06:58:17;14.30;99.90
37896;DHT22;23733;53.254;10.430;2022-10-18T07:00:44;14.30;99.90
37896;DHT22;23733;53.254;10.430;2022-10-18T08:48:42;14.30;99.90
37896;DHT22;23733;53.254;10.430;2022-10-18T08:51:30;14.30;99.90
37896;DHT22;23733;53.254;10.430;2022-10-18T08:54:15;14.30;99.90
37896;DHT22;23733;53.254;10.430;2022-10-18T08:56:46;14.40;99.90
37896;DHT22;23733;53.254;10.430;2022-10-18T08:59:17;14.40;99.90
37896;DHT22;23733;53.254;10.430;2022-10-18T09:13:48;14.50;99.90
37896;DHT22;23733;53.254;10.430;2022-10-18T09:16:25;14.50;99.90
37896;DHT22;23733;53.254;10.430;2022-10-18T09:22:00;14.50;99.90
37896;DHT22;23733;53.254;10.430;2022-10-18T09:24:43;14.50;99.90
37896;DHT22;23733;53.254;10.430;2022-10-18T09:27:16;14.50;99.90
37896;DHT22;23733;53.254;10.430;2022-10-18T09:32:58;14.60;99.90
37896;DHT22;23733;53.254;10.430;2022-10-18T09:35:29;14.60;99.90
37896;DHT22;23733;53.254;10.430;2022-10-18T09:38:03;14.60;99.90
37896;DHT22;23733;53.254;10.430;2022-10-18T09:40:36;14.60;99.90
37896;DHT22;23733;53.254;10.430;2022-10-18T09:43:13;14.60;99.90
37896;DHT22;23733;53.254;10.430;2022-10-18T09:45:43;14.60;99.90
37896;DHT22;23733;53.254;10.430;2022-10-18T09:50:59;14.60;99.90
37896;DHT22;23733;53.254;10.430;2022-10-18T09:56:25;14.60;99.90
37896;DHT22;23733;53.254;10.430;2022-10-18T09:58:53;14.60;99.90
37896;DHT22;23733;53.254;10.430;2022-10-18T10:01:28;14.60;99.90
37896;DHT22;23733;53.254;10.430;2022-10-18T10:03:54;14.60;99.90
37896;DHT22;23733;53.254;10.430;2022-10-18T10:06:29;14.60;99.90
37896;DHT22;23733;53.254;10.430;2022-10-18T10:09:00;14.70;99.90
37896;DHT22;23733;53.254;10.430;2022-10-18T10:11:29;14.70;99.90
37896;DHT22;23733;53.254;10.430;2022-10-18T10:14:15;14.70;99.90
37896;DHT22;23733;53.254;10.430;2022-10-18T10:16:46;14.80;99.90
37896;DHT22;23733;53.254;10.430;2022-10-18T10:19:29;14.80;99.90
37896;DHT22;23733;53.254;10.430;2022-10-18T11:52:07;17.20;99.90
37896;DHT22;23733;53.254;10.430;2022-10-18T11:54:58;17.10;99.90
37896;DHT22;23733;53.254;10.430;2022-10-18T11:57:39;17.10;99.90
37896;DHT22;23733;53.254;10.430;2022-10-18T12:08:26;17.00;99.90
37896;DHT22;23733;53.254;10.430;2022-10-18T12:10:55;16.90;99.90
37896;DHT22;23733;53.254;10.430;2022-10-18T12:13:31;16.90;99.90
37896;DHT22;23733;53.254;10.430;2022-10-18T12:16:01;16.90;99.90
37896;DHT22;23733;53.254;10.430;2022-10-18T12:18:29;16.90;99.90
37896;DHT22;23733;53.254;10.430;2022-10-18T12:20:57;16.90;99.90
37896;DHT22;23733;53.254;10.430;2022-10-18T12:23:35;17.00;99.90
37896;DHT22;23733;53.254;10.430;2022-10-18T12:26:08;17.00;99.90
37896;DHT22;23733;53.254;10.430;2022-10-18T12:31:33;17.00;99.90
37896;DHT22;23733;53.254;10.430;2022-10-18T12:37:08;17.00;99.90
37896;DHT22;23733;53.254;10.430;2022-10-18T12:47:21;16.90;99.90
37896;DHT22;23733;53.254;10.430;2022-10-18T12:49:59;16.60;99.90
37896;DHT22;23733;53.254;10.430;2022-10-18T12:52:27;16.60;99.90
37896;DHT22;23733;53.254;10.430;2022-10-18T12:55:28;16.60;99.90
37896;DHT22;23733;53.254;10.430;2022-10-18T13:13:36;16.60;99.90
37896;DHT22;23733;53.254;10.430;2022-10-18T13:18:51;16.60;99.90
37896;DHT22;23733;53.254;10.430;2022-10-18T13:27:03;16.50;99.90
37896;DHT22;23733;53.254;10.430;2022-10-18T13:32:31;16.50;99.90
37896;DHT22;23733;53.254;10.430;2022-10-18T13:34:58;16.50;99.90
37896;DHT22;23733;53.254;10.430;2022-10-18T13:37:24;16.50;99.90
37896;DHT22;23733;53.254;10.430;2022-10-18T13:40:21;16.40;99.90
37896;DHT22;23733;53.254;10.430;2022-10-18T13:42:48;16.40;99.90
37896;DHT22;23733;53.254;10.430;2022-10-18T13:48:41;16.40;99.90
37896;DHT22;23733;53.254;10.430;2022-10-18T13:50:43;16.40;99.90
37896;DHT22;23733;53.254;10.430;2022-10-18T13:53:29;16.40;99.90
37896;DHT22;23733;53.254;10.430;2022-10-18T13:56:15;16.40;99.90
37896;DHT22;23733;53.254;10.430;2022-10-18T13:58:53;16.40;99.90
37896;DHT22;23733;53.254;10.430;2022-10-18T14:06:44;16.40;99.90
37896;DHT22;23733;53.254;10.430;2022-10-18T14:09:25;16.20;99.90
37896;DHT22;23733;53.254;10.430;2022-10-18T14:11:58;16.20;99.90
37896;DHT22;23733;53.254;10.430;2022-10-18T14:14:44;16.20;99.90
37896;DHT22;23733;53.254;10.430;2022-10-18T14:17:33;16.20;99.90
37896;DHT22;23733;53.254;10.430;2022-10-18T14:20:42;16.10;99.90
37896;DHT22;23733;53.254;10.430;2022-10-18T14:23:16;16.10;99.90
37896;DHT22;23733;53.254;10.430;2022-10-18T14:25:43;16.00;99.90
37896;DHT22;23733;53.254;10.430;2022-10-18T14:28:15;16.00;99.90
37896;DHT22;23733;53.254;10.430;2022-10-18T14:31:02;16.00;99.90
37896;DHT22;23733;53.254;10.430;2022-10-18T14:51:17;16.00;99.90
37896;DHT22;23733;53.254;10.430;2022-10-18T14:53:45;15.90;99.90
37896;DHT22;23733;53.254;10.430;2022-10-18T14:56:27;15.90;99.90
37896;DHT22;23733;53.254;10.430;2022-10-18T14:58:56;15.90;99.90
37896;DHT22;23733;53.254;10.430;2022-10-18T15:01:26;15.90;99.90
37896;DHT22;23733;53.254;10.430;2022-10-18T15:03:57;15.80;99.90
37896;DHT22;23733;53.254;10.430;2022-10-18T15:06:24;15.80;99.90
37896;DHT22;23733;53.254;10.430;2022-10-18T15:08:54;15.80;99.90
37896;DHT22;23733;53.254;10.430;2022-10-18T15:11:21;15.70;99.90
37896;DHT22;23733;53.254;10.430;2022-10-18T15:13:54;15.70;99.90
37896;DHT22;23733;53.254;10.430;2022-10-18T15:16:27;15.70;99.90
37896;DHT22;23733;53.254;10.430;2022-10-18T15:21:55;15.60;99.90
37896;DHT22;23733;53.254;10.430;2022-10-18T15:24:33;15.50;99.90
37896;DHT22;23733;53.254;10.430;2022-10-18T15:29:46;15.40;99.90
37896;DHT22;23733;53.254;10.430;2022-10-18T15:32:20;15.40;99.90
37896;DHT22;23733;53.254;10.430;2022-10-18T15:34:49;15.40;99.90
37896;DHT22;23733;53.254;10.430;2022-10-18T15:42:50;15.40;99.90
37896;DHT22;23733;53.254;10.430;2022-10-18T16:25:14;15.10;99.90
37896;DHT22;23733;53.254;10.430;2022-10-18T16:27:40;14.90;99.90
37896;DHT22;23733;53.254;10.430;2022-10-18T16:30:12;14.80;99.90
37896;DHT22;23733;53.254;10.430;2022-10-18T16:32:38;14.80;99.90
37896;DHT22;23733;53.254;10.430;2022-10-18T16:35:06;14.80;99.90
37896;DHT22;23733;53.254;10.430;2022-10-18T16:37:32;14.70;99.90
37896;DHT22;23733;53.254;10.430;2022-10-18T16:39:58;14.70;99.90
37896;DHT22;23733;53.254;10.430;2022-10-18T16:42:24;14.70;99.90
37896;DHT22;23733;53.254;10.430;2022-10-18T16:44:50;14.70;99.90
37896;DHT22;23733;53.254;10.430;2022-10-18T16:47:16;14.70;99.90
37896;DHT22;23733;53.254;10.430;2022-10-18T16:49:42;14.70;99.90
37896;DHT22;23733;53.254;10.430;2022-10-18T16:52:09;14.70;99.90
37896;DHT22;23733;53.254;10.430;2022-10-18T16:54:35;14.60;99.90
37896;DHT22;23733;53.254;10.430;2022-10-18T16:57:01;14.60;99.90
37896;DHT22;23733;53.254;10.430;2022-10-18T16:59:29;14.60;99.90
37896;DHT22;23733;53.254;10.430;2022-10-18T17:01:56;14.60;99.90
37896;DHT22;23733;53.254;10.430;2022-10-18T17:04:22;14.50;99.90
37896;DHT22;23733;53.254;10.430;2022-10-18T17:06:48;14.50;99.90
37896;DHT22;23733;53.254;10.430;2022-10-18T17:09:14;14.50;99.90
37896;DHT22;23733;53.254;10.430;2022-10-18T17:11:40;14.40;99.90
37896;DHT22;23733;53.254;10.430;2022-10-18T17:14:07;14.40;99.90
37896;DHT22;23733;53.254;10.430;2022-10-18T17:16:34;14.40;99.90
37896;DHT22;23733;53.254;10.430;2022-10-18T17:19:04;14.40;99.90
37896;DHT22;23733;53.254;10.430;2022-10-18T17:21:31;14.30;99.90
37896;DHT22;23733;53.254;10.430;2022-10-18T17:23:58;14.30;99.90
37896;DHT22;23733;53.254;10.430;2022-10-18T17:26:26;14.20;99.90
37896;DHT22;23733;53.254;10.430;2022-10-18T17:28:54;14.10;99.90
37896;DHT22;23733;53.254;10.430;2022-10-18T17:31:21;14.10;99.90
37896;DHT22;23733;53.254;10.430;2022-10-18T17:33:47;14.10;99.90
37896;DHT22;23733;53.254;10.430;2022-10-18T17:36:13;14.10;99.90
37896;DHT22;23733;53.254;10.430;2022-10-18T17:38:39;14.10;99.90
37896;DHT22;23733;53.254;10.430;2022-10-18T17:41:09;14.10;99.90
37896;DHT22;23733;53.254;10.430;2022-10-18T17:43:37;14.10;99.90
37896;DHT22;23733;53.254;10.430;2022-10-18T18:25:16;14.10;99.90
37896;DHT22;23733;53.254;10.430;2022-10-18T18:27:42;13.80;99.90
37896;DHT22;23733;53.254;10.430;2022-10-18T18:30:08;13.80;99.90
37896;DHT22;23733;53.254;10.430;2022-10-18T18:32:34;13.80;99.90
37896;DHT22;23733;53.254;10.430;2022-10-18T18:35:00;13.80;99.90
37896;DHT22;23733;53.254;10.430;2022-10-18T18:37:26;13.80;99.90
37896;DHT22;23733;53.254;10.430;2022-10-18T18:39:52;13.80;99.90
37896;DHT22;23733;53.254;10.430;2022-10-18T18:42:18;13.80;99.90
37896;DHT22;23733;53.254;10.430;2022-10-18T18:44:44;13.80;99.90
37896;DHT22;23733;53.254;10.430;2022-10-18T18:47:11;13.80;99.90
37896;DHT22;23733;53.254;10.430;2022-10-18T18:49:37;13.70;99.90
37896;DHT22;23733;53.254;10.430;2022-10-18T18:52:03;13.70;99.90
37896;DHT22;23733;53.254;10.430;2022-10-18T18:54:29;13.70;99.90
37896;DHT22;23733;53.254;10.430;2022-10-18T18:56:57;13.70;99.90
37896;DHT22;23733;53.254;10.430;2022-10-18T18:59:23;13.70;99.90
37896;DHT22;23733;53.254;10.430;2022-10-18T19:01:49;13.70;99.90
37896;DHT22;23733;53.254;10.430;2022-10-18T19:04:15;13.70;99.90
37896;DHT22;23733;53.254;10.430;2022-10-18T19:06:43;13.70;99.90
37896;DHT22;23733;53.254;10.430;2022-10-18T19:09:12;13.70;99.90
37896;DHT22;23733;53.254;10.430;2022-10-18T19:11:45;13.70;99.90
37896;DHT22;23733;53.254;10.430;2022-10-18T19:14:12;13.70;99.90
37896;DHT22;23733;53.254;10.430;2022-10-18T19:19:19;13.70;99.90
37896;DHT22;23733;53.254;10.430;2022-10-18T19:21:57;13.70;99.90
37896;DHT22;23733;53.254;10.430;2022-10-18T19:24:25;13.70;99.90
37896;DHT22;23733;53.254;10.430;2022-10-18T19:26:54;13.70;99.90
37896;DHT22;23733;53.254;10.430;2022-10-18T19:29:31;13.70;99.90
37896;DHT22;23733;53.254;10.430;2022-10-18T19:31:59;13.70;99.90
37896;DHT22;23733;53.254;10.430;2022-10-18T19:34:26;13.60;99.90
37896;DHT22;23733;53.254;10.430;2022-10-18T19:36:53;13.70;99.90
37896;DHT22;23733;53.254;10.430;2022-10-18T19:39:20;13.70;99.90
37896;DHT22;23733;53.254;10.430;2022-10-18T19:41:48;13.70;99.90
37896;DHT22;23733;53.254;10.430;2022-10-18T19:44:19;13.70;99.90
37896;DHT22;23733;53.254;10.430;2022-10-18T19:46:45;13.70;99.90
37896;DHT22;23733;53.254;10.430;2022-10-18T19:49:12;13.70;99.90
37896;DHT22;23733;53.254;10.430;2022-10-18T19:51:38;13.70;99.90
37896;DHT22;23733;53.254;10.430;2022-10-18T19:54:04;13.70;99.90
37896;DHT22;23733;53.254;10.430;2022-10-18T19:56:30;13.60;99.90
37896;DHT22;23733;53.254;10.430;2022-10-18T19:58:57;13.60;99.90
37896;DHT22;23733;53.254;10.430;2022-10-18T20:01:25;13.70;99.90
37896;DHT22;23733;53.254;10.430;2022-10-18T20:03:51;13.70;99.90
37896;DHT22;23733;53.254;10.430;2022-10-18T20:06:18;13.70;99.90
37896;DHT22;23733;53.254;10.430;2022-10-18T20:08:44;13.70;99.90
37896;DHT22;23733;53.254;10.430;2022-10-18T20:11:16;13.70;99.90
37896;DHT22;23733;53.254;10.430;2022-10-18T20:13:42;13.60;99.90
37896;DHT22;23733;53.254;10.430;2022-10-18T20:16:10;13.60;99.90
37896;DHT22;23733;53.254;10.430;2022-10-18T20:18:36;13.70;99.90
37896;DHT22;23733;53.254;10.430;2022-10-18T20:21:06;13.70;99.90
37896;DHT22;23733;53.254;10.430;2022-10-18T20:23:35;13.70;99.90
37896;DHT22;23733;53.254;10.430;2022-10-18T20:26:11;13.60;99.90
37896;DHT22;23733;53.254;10.430;2022-10-18T20:28:38;13.60;99.90
37896;DHT22;23733;53.254;10.430;2022-10-18T20:31:11;13.60;99.90
37896;DHT22;23733;53.254;10.430;2022-10-18T20:33:38;13.60;99.90
37896;DHT22;23733;53.254;10.430;2022-10-18T20:36:09;13.60;99.90
37896;DHT22;23733;53.254;10.430;2022-10-18T20:38:38;13.60;99.90
37896;DHT22;23733;53.254;10.430;2022-10-18T20:41:09;13.60;99.90
37896;DHT22;23733;53.254;10.430;2022-10-18T20:43:37;13.60;99.90
37896;DHT22;23733;53.254;10.430;2022-10-18T20:46:03;13.50;99.90
37896;DHT22;23733;53.254;10.430;2022-10-18T20:48:31;13.50;99.90
37896;DHT22;23733;53.254;10.430;2022-10-18T20:51:02;13.50;99.90
37896;DHT22;23733;53.254;10.430;2022-10-18T20:53:28;13.50;99.90
37896;DHT22;23733;53.254;10.430;2022-10-18T20:56:02;13.50;99.90
37896;DHT22;23733;53.254;10.430;2022-10-18T20:58:29;13.50;99.90
37896;DHT22;23733;53.254;10.430;2022-10-18T21:00:55;13.50;99.90
37896;DHT22;23733;53.254;10.430;2022-10-18T21:03:21;13.50;99.90
37896;DHT22;23733;53.254;10.430;2022-10-18T21:05:47;13.40;99.90
37896;DHT22;23733;53.254;10.430;2022-10-18T21:08:14;13.50;99.90
37896;DHT22;23733;53.254;10.430;2022-10-18T21:10:39;13.40;99.90
37896;DHT22;23733;53.254;10.430;2022-10-18T21:13:06;13.50;99.90
37896;DHT22;23733;53.254;10.430;2022-10-18T21:15:32;13.50;99.90
37896;DHT22;23733;53.254;10.430;2022-10-18T21:17:58;13.50;99.90
37896;DHT22;23733;53.254;10.430;2022-10-18T21:20:24;13.50;99.90
37896;DHT22;23733;53.254;10.430;2022-10-18T21:22:49;13.50;99.90
37896;DHT22;23733;53.254;10.430;2022-10-18T21:25:17;13.50;99.90
37896;DHT22;23733;53.254;10.430;2022-10-18T21:27:43;13.50;99.90
37896;DHT22;23733;53.254;10.430;2022-10-18T21:30:10;13.50;99.90
37896;DHT22;23733;53.254;10.430;2022-10-18T21:32:36;13.50;99.90
37896;DHT22;23733;53.254;10.430;2022-10-18T21:35:02;13.50;99.90
37896;DHT22;23733;53.254;10.430;2022-10-18T21:37:28;13.40;99.90
37896;DHT22;23733;53.254;10.430;2022-10-18T21:39:54;13.40;99.90
37896;DHT22;23733;53.254;10.430;2022-10-18T21:42:20;13.40;99.90
37896;DHT22;23733;53.254;10.430;2022-10-18T21:44:46;13.40;99.90
37896;DHT22;23733;53.254;10.430;2022-10-18T21:47:12;13.20;99.90
37896;DHT22;23733;53.254;10.430;2022-10-18T21:49:38;13.30;99.90
37896;DHT22;23733;53.254;10.430;2022-10-18T21:52:04;13.30;99.90
37896;DHT22;23733;53.254;10.430;2022-10-18T21:54:31;13.30;99.90
37896;DHT22;23733;53.254;10.430;2022-10-18T21:56:57;13.30;99.90
37896;DHT22;23733;53.254;10.430;2022-10-18T21:59:23;13.30;99.90
37896;DHT22;23733;53.254;10.430;2022-10-18T22:01:50;13.20;99.90
37896;DHT22;23733;53.254;10.430;2022-10-18T22:04:19;13.20;99.90
37896;DHT22;23733;53.254;10.430;2022-10-18T22:06:46;13.20;99.90
37896;DHT22;23733;53.254;10.430;2022-10-18T22:09:12;13.10;99.90
37896;DHT22;23733;53.254;10.430;2022-10-18T22:11:41;13.20;99.90
37896;DHT22;23733;53.254;10.430;2022-10-18T22:14:07;13.10;99.90
37896;DHT22;23733;53.254;10.430;2022-10-18T22:16:33;13.10;99.90
37896;DHT22;23733;53.254;10.430;2022-10-18T22:19:00;13.10;99.90
37896;DHT22;23733;53.254;10.430;2022-10-18T22:21:28;13.10;99.90
37896;DHT22;23733;53.254;10.430;2022-10-18T22:23:55;13.10;99.90
37896;DHT22;23733;53.254;10.430;2022-10-18T22:28:55;13.00;99.90
37896;DHT22;23733;53.254;10.430;2022-10-18T22:31:24;12.80;99.90
37896;DHT22;23733;53.254;10.430;2022-10-18T22:33:55;12.80;99.90
37896;DHT22;23733;53.254;10.430;2022-10-18T22:36:22;12.80;99.90
37896;DHT22;23733;53.254;10.430;2022-10-18T22:38:48;12.80;99.90
37896;DHT22;23733;53.254;10.430;2022-10-18T22:41:14;12.90;99.90
37896;DHT22;23733;53.254;10.430;2022-10-18T22:43:40;12.80;99.90
37896;DHT22;23733;53.254;10.430;2022-10-18T22:46:09;12.80;99.90
37896;DHT22;23733;53.254;10.430;2022-10-18T22:48:35;12.80;99.90
37896;DHT22;23733;53.254;10.430;2022-10-18T22:51:02;12.90;99.90
37896;DHT22;23733;53.254;10.430;2022-10-18T22:53:29;12.90;99.90
37896;DHT22;23733;53.254;10.430;2022-10-18T22:55:55;12.90;99.90
37896;DHT22;23733;53.254;10.430;2022-10-18T22:58:21;12.90;99.90
37896;DHT22;23733;53.254;10.430;2022-10-18T23:00:48;12.80;99.90
37896;DHT22;23733;53.254;10.430;2022-10-18T23:03:17;12.80;99.90
37896;DHT22;23733;53.254;10.430;2022-10-18T23:05:45;12.80;99.90
37896;DHT22;23733;53.254;10.430;2022-10-18T23:08:12;12.80;99.90
37896;DHT22;23733;53.254;10.430;2022-10-18T23:10:40;12.80;99.90
37896;DHT22;23733;53.254;10.430;2022-10-18T23:13:07;12.80;99.90
37896;DHT22;23733;53.254;10.430;2022-10-18T23:15:34;12.80;99.90
37896;DHT22;23733;53.254;10.430;2022-10-18T23:18:00;12.70;99.90
37896;DHT22;23733;53.254;10.430;2022-10-18T23:20:26;12.70;99.90
